AirNav   TITAN Aviation Fuels
 
 834 users online  

0CL3 John Nichol's Field Airport
Chula Vista, California, USA

GOING TO CHULA VISTA?


FAA INFORMATION EFFECTIVE 20 MAY 2021

Location

FAA Identifier: 0CL3
Lat/Long: 32-38-00.1400N 116-53-25.1200W
32-38.002333N 116-53.418667W
32.6333722,-116.8903111
(estimated)
Elevation: 500 ft. / 152 m (estimated)
Variation: 13E (1985)
From city: 10 miles E of CHULA VISTA, CA
Time zone: UTC -7 (UTC -8 during Standard Time)
Zip code: 91915

Airport Operations

Airport use: Private use. Permission required prior to landing
Activation date: 10/1987
Control tower: no
ARTCC: LOS ANGELES CENTER
FSS: SAN DIEGO FLIGHT SERVICE STATION
Attendance: 0800-SS
Wind indicator: yes
Segmented circle: yes

Airport Communications

WX ASOS at SDM (6 nm SW): 132.35 (619-661-8297)
WX ASOS at NRS (12 nm W): PHONE 619-437-9890
WX AWOS-3P at SEE (12 nm N): 125.45 (619-449-1228)
WX ASOS at SAN (16 nm W): PHONE 619-296-8934
WX ASOS at MYF (17 nm NW): 126.9 (858-576-4337)

Nearby radio navigation aids

VOR radial/distance  VOR name  Freq  Var
PGYr059/4.7POGGI VORTAC116.4514E
TIJr017/6.4TIJUANA VOR/DME116.5012E
MZBr103/19.1MISSION BAY VORTAC117.8015E
JLIr192/34.1JULIAN VORTAC114.0015E

Airport Services

Runway Information

Runway 9/27

Dimensions: 2036 x 30 ft. / 621 x 9 m
WESTERN 220 FT GRAVEL.
Surface: asphalt
RUNWAY 9  RUNWAY 27
Latitude: 32-38.050167N32-37.954500N
Longitude: 116-53.608833W116-53.228500W
Elevation: 488.0 ft.500.0 ft.
Traffic pattern: rightleft
Displaced threshold: 220 ft.no

Airport Ownership and Management from official FAA records

Ownership: Privately-owned
Owner: TACTICAL AIR OPERATIONS, INC.
13531 OTAY LAKES ROAD
JAMUL, CA 92035
Phone 619-216-8416
Manager: ALAN FINK, PRES.
860 COUNTRY CLUB LANE
CORONADO, CA 92118
Phone 619-216-8416

Airport Operational Statistics

Aircraft based on the field: 23
Multi engine airplanes: 3
Ultralights: 20
    

Additional Remarks

FOR CD CTC LOS ANGELES ARTCC AT 661-575-2079.

Instrument Procedures

There are no published instrument procedures at 0CL3.

Some nearby airports with instrument procedures:

KSDM - Brown Field Municipal Airport (6 nm SW)
KNRS - Imperial Beach Naval Outlying Field (Ream Field) (12 nm W)
KSEE - Gillespie Field Airport (12 nm N)
KSAN - San Diego International Airport (16 nm W)
KMYF - Montgomery-Gibbs Executive Airport (17 nm NW)
KNZY - North Island Naval Air Station (Halsey Field) (17 nm W)
KNKX - Miramar MCAS (Joe Foss Field) Airport (19 nm NW)
 
Loc | Ops | Rwys | IFR | FBO | Links
Com | Nav | Svcs | Stats | Notes
Area around 0CL3 (John Nichol's Field Airport)
 
Road maps at: MapQuest Bing Google
 
Aerial photo
No photo
 
Sectional chart

 
Airport distance calculator
Flying to John Nichol's Field Airport? Find the distance to fly.

From to 0CL3

Sunrise and sunset
Times for 12-Jun-2021
 Local
(UTC-7)
 Zulu
(UTC)
Morning civil twilight05:1212:12
Sunrise05:4012:40
Sunset19:5502:55
Evening civil twilight20:2303:23

Current date and time
Zulu (UTC)  13-Jun-2021 02:39:32
Local (UTC-7)  12-Jun-2021 19:39:32
 
METAR
KSDM 
6nm SW 
130153Z 28007KT 10SM CLR 21/13 A2986 RMK AO2 SLP106 T02060128
MMTJ 
7nm SW 
130143Z 33012KT 10SM SKC 21/13 A2988 RMK HZY ISOL CI
KSEE 
12nm N 
130215Z AUTO 24005KT 10SM CLR 24/13 A2984 RMK AO2
KNRS 
12nm W 
130156Z AUTO 10SM CLR A2987 RMK AO2 SLP116 $
KSAN 
16nm W 
130151Z 26005KT 10SM FEW008 FEW200 21/14 A2987 RMK AO2 SLP113 T02110139
KMYF 
16nm NW 
130153Z 25007KT 10SM CLR 21/13 A2986 RMK AO2 SLP106 T02110133
KNZY 
17nm W 
130152Z 24007KT 10SM FEW010 FEW250 19/14 A2985 RMK AO2 SLP108 T01890139
KNKX 
19nm NW 
130155Z 27006KT 10SM CLR 22/13 A2985 RMK AO2 SLP103 T02220128 $
TAF
MMTJ 
7nm SW 
130221Z 1306/1412 00000KT P6SM SCT012 TX26/1320Z TN13/1312Z TEMPO 1311/1315 5SM HZ BKN010 FM131800 32014KT P6SM SCT250 FM140600 00000KT P6SM SCT015
KSAN 
16nm W 
122044Z 1221/1324 22007KT P6SM FEW008 FEW250 FM130200 26004KT P6SM FEW008 FM130700 VRB04KT 6SM BR BKN008 FM131700 26010KT P6SM SCT250
KNZY 
17nm W 
1223/1323 22008KT 9999 FEW120 SCT250 QNH2981INS BECMG 1307/1309 VRB06KT 9999 BKN010 BKN030 QNH2982INS FM131800 25008KT 9999 SCT120 QNH2987INS T14/1312Z T22/1322Z FS30176
KNKX 
19nm NW 
1221/1321 25008KT 9999 SKC QNH2980INS BECMG 1301/1303 VRB05KT 9999 SKC QNH2981INS TEMPO 1309/1315 BKN009 FM131830 27008KT 9999 SKC QNH2985INS T26/1221Z T14/1314Z
NOTAMs
Click for the latest NOTAMs
NOTAMs are issued by the DoD/FAA and will open in a separate window not controlled by AirNav.

 

 
 

Would you like to see your business listed on this page?

 If your business provides an interesting product or service to pilots, flight crews, aircraft, or users of the John Nichol's Field Airport, you should consider listing it here.  To start the listing process, click on the button below
 
Add a business
 

Other Pages about John Nichol's Field Airport

Update a link
 
Copyright © AirNav, LLC. All rights reserved. Privacy Policy  Contact